Larrabee, Iowa
Current Conditions -  °F | °C
As of 10:35 PM on Saturday 22 Nov 2014 (Local Time) from KCKP Reporting Station
Broken Clouds Broken Clouds  
Wind Chill: 50°   Ceiling: 1500
Heat Index: 50°   Visibility: 7mi
Dew Point: 50°   Wind: 10mph
Humidity: 99%   Direction: 200°SSW
Pressure: 29.52"   Gusts: NA
Location:  42.86°N, 95.55°W
Report Text: KCKP 230435Z AUTO 20009KT 7SM BKN015 BKN022 10/10 A2952 RMK AO2 T01020100
Loading
Personal Weather Stations






























Interactive Weather Map New forecast layout! Learn more

10-Day Weather Forecast

Advertisements
Track Severe Weather on mobile